createdAt,value
2018-06-20T00:00:11.217Z,15.52
2018-06-20T00:05:15.156Z,15.53
2018-06-20T00:10:18.297Z,15.35
2018-06-20T00:15:21.421Z,15.14
2018-06-20T00:20:24.568Z,15.02
2018-06-20T00:25:27.694Z,15.05
2018-06-20T00:30:30.791Z,15.01
2018-06-20T00:35:34.027Z,14.85
2018-06-20T00:40:37.211Z,14.78
2018-06-20T00:45:40.349Z,14.67
2018-06-20T00:50:43.473Z,14.61
2018-06-20T00:55:57.879Z,14.61
2018-06-20T01:01:01.012Z,14.55
2018-06-20T01:06:04.278Z,14.40
2018-06-20T01:11:07.458Z,14.33
2018-06-20T01:16:10.743Z,14.25
2018-06-20T01:21:13.936Z,14.25
2018-06-20T01:26:17.061Z,14.21
2018-06-20T01:31:20.238Z,14.15
2018-06-20T01:36:23.391Z,14.22
2018-06-20T01:41:26.647Z,14.26
2018-06-20T01:46:29.859Z,14.39
2018-06-20T01:51:33.042Z,14.50
2018-06-20T01:56:36.212Z,14.66
2018-06-20T02:01:39.411Z,14.82
2018-06-20T02:06:42.746Z,14.88
2018-06-20T02:11:45.979Z,14.95
2018-06-20T02:16:49.141Z,15.00
2018-06-20T02:21:52.347Z,15.09
2018-06-20T02:26:55.442Z,15.18
2018-06-20T02:31:59.186Z,15.26
2018-06-20T02:37:02.367Z,15.34
2018-06-20T02:42:05.593Z,15.46
2018-06-20T02:47:08.755Z,15.56
2018-06-20T02:52:12.011Z,15.66
2018-06-20T02:57:15.195Z,15.77
2018-06-20T03:02:18.329Z,15.82
2018-06-20T03:07:21.488Z,15.91
2018-06-20T03:12:24.641Z,16.01
2018-06-20T03:17:27.824Z,16.00
2018-06-20T03:22:30.977Z,16.11
2018-06-20T03:27:34.268Z,16.19
2018-06-20T03:32:37.421Z,16.29
2018-06-20T03:37:40.521Z,16.38
2018-06-20T03:42:43.708Z,16.37
2018-06-20T03:47:47.140Z,16.62
2018-06-20T03:52:51.466Z,16.73
2018-06-20T03:57:54.811Z,16.88
2018-06-20T04:02:58.260Z,17.03
2018-06-20T04:08:01.566Z,17.20
2018-06-20T04:13:04.758Z,17.36
2018-06-20T04:18:08.191Z,17.46
2018-06-20T04:23:11.566Z,17.51
2018-06-20T04:28:14.691Z,17.34
2018-06-20T04:33:17.972Z,17.31
2018-06-20T04:38:21.235Z,17.31
2018-06-20T04:43:24.825Z,17.34
2018-06-20T04:48:28.696Z,17.61
2018-06-20T04:53:31.812Z,17.93
2018-06-20T04:58:34.977Z,18.15
2018-06-20T05:03:38.196Z,18.27
2018-06-20T05:08:41.412Z,18.34
2018-06-20T05:13:45.240Z,18.48
2018-06-20T05:18:48.337Z,18.74
2018-06-20T05:23:51.576Z,18.90
2018-06-20T05:28:54.686Z,19.09
2018-06-20T05:33:57.838Z,19.04
2018-06-20T05:39:01.066Z,19.17
2018-06-20T05:44:04.372Z,19.39
2018-06-20T05:49:08.743Z,19.51
2018-06-20T05:54:11.854Z,19.79
2018-06-20T05:59:17.463Z,20.27
2018-06-20T06:04:21.037Z,20.42
2018-06-20T06:09:24.178Z,20.75
2018-06-20T06:14:27.417Z,20.96
2018-06-20T06:19:30.555Z,21.04
2018-06-20T06:24:36.710Z,21.12
2018-06-20T06:29:40.565Z,21.33
2018-06-20T06:34:43.666Z,21.35
2018-06-20T06:39:46.752Z,21.84
2018-06-20T06:44:49.853Z,22.04
2018-06-20T06:49:53.000Z,22.27
2018-06-20T06:54:56.280Z,22.63
2018-06-20T07:00:00.490Z,22.97
2018-06-20T07:05:03.672Z,23.49
2018-06-20T07:10:06.846Z,24.22
2018-06-20T07:15:09.975Z,24.10
2018-06-20T07:20:13.137Z,24.14
2018-06-20T07:25:16.187Z,24.21
2018-06-20T07:30:19.291Z,24.46
2018-06-20T07:35:23.083Z,24.44
2018-06-20T07:40:26.112Z,24.95
2018-06-20T07:45:29.181Z,25.59
2018-06-20T07:50:32.315Z,25.74
2018-06-20T07:55:35.474Z,25.91
2018-06-20T08:00:38.636Z,25.97
2018-06-20T08:05:41.832Z,26.37
2018-06-20T08:10:44.943Z,26.26
2018-06-20T08:15:48.099Z,26.30
2018-06-20T08:20:51.178Z,27.03
2018-06-20T08:25:54.308Z,26.82
2018-06-20T08:30:57.472Z,26.80
2018-06-20T08:36:00.621Z,26.76
2018-06-20T08:41:03.791Z,27.02
2018-06-20T08:46:06.937Z,28.36
2018-06-20T08:51:10.174Z,28.33
2018-06-20T08:56:13.296Z,28.29
2018-06-20T09:01:16.422Z,27.97
2018-06-20T09:06:19.578Z,28.26
2018-06-20T09:11:22.728Z,28.03
2018-06-20T09:16:28.071Z,29.30
2018-06-20T09:21:31.160Z,29.05
2018-06-20T09:26:34.340Z,29.70
2018-06-20T09:31:37.472Z,29.95
2018-06-20T09:36:40.726Z,29.60
2018-06-20T09:41:43.876Z,28.82
2018-06-20T09:46:46.961Z,28.67
2018-06-20T09:51:50.035Z,28.62
2018-06-20T09:56:53.204Z,28.83
2018-06-20T10:01:56.300Z,28.92
2018-06-20T10:06:59.451Z,28.87
2018-06-20T10:12:02.592Z,28.84
2018-06-20T10:17:06.088Z,28.13
2018-06-20T10:22:09.271Z,27.76
2018-06-20T10:27:12.394Z,29.41
2018-06-20T10:32:15.460Z,31.59
2018-06-20T10:37:18.541Z,31.54
2018-06-20T10:42:21.720Z,31.76
2018-06-20T10:47:24.827Z,32.03
2018-06-20T10:52:27.957Z,32.80
2018-06-20T10:57:33.268Z,31.53
2018-06-20T11:02:36.402Z,31.03
2018-06-20T11:07:39.600Z,31.29
2018-06-20T11:12:42.671Z,31.08
2018-06-20T11:17:45.767Z,30.85
2018-06-20T11:22:49.056Z,30.76
2018-06-20T11:27:52.191Z,30.95
2018-06-20T11:32:55.369Z,31.47
2018-06-20T11:37:58.525Z,31.53
2018-06-20T11:43:01.668Z,32.19
2018-06-20T11:48:06.814Z,31.87
2018-06-20T11:53:09.923Z,32.74
2018-06-20T11:58:13.222Z,31.70
2018-06-20T12:03:16.299Z,30.10
2018-06-20T12:08:20.025Z,30.08
2018-06-20T12:13:23.154Z,30.85
2018-06-20T12:18:27.376Z,30.91
2018-06-20T12:23:30.507Z,31.07
2018-06-20T12:28:33.630Z,31.64
2018-06-20T12:33:37.189Z,31.45
2018-06-20T12:38:40.348Z,30.41
2018-06-20T12:43:43.607Z,30.50
2018-06-20T12:48:46.739Z,30.02
2018-06-20T12:53:49.949Z,30.23
2018-06-20T12:58:53.074Z,31.02
2018-06-20T13:03:56.244Z,31.47
2018-06-20T13:08:59.349Z,31.77
2018-06-20T13:14:02.501Z,31.87
2018-06-20T13:19:05.633Z,31.17
2018-06-20T13:24:08.824Z,31.23
2018-06-20T13:29:11.969Z,30.94
2018-06-20T13:34:15.095Z,31.03
2018-06-20T13:39:18.250Z,30.62
2018-06-20T13:44:21.533Z,31.13
2018-06-20T13:49:25.326Z,32.21
2018-06-20T13:54:28.512Z,31.59
2018-06-20T13:59:31.752Z,31.03
2018-06-20T14:04:37.163Z,30.47
2018-06-20T14:09:40.283Z,30.77
2018-06-20T14:14:43.426Z,31.04
2018-06-20T14:19:46.536Z,32.08
2018-06-20T14:24:52.238Z,31.83
2018-06-20T14:29:55.966Z,30.45
2018-06-20T14:35:00.208Z,30.23
2018-06-20T14:40:04.117Z,31.07
2018-06-20T14:45:09.215Z,30.59
2018-06-20T14:50:12.620Z,31.37
2018-06-20T14:55:16.354Z,31.91
2018-06-20T15:00:20.387Z,30.90
2018-06-20T15:05:24.013Z,31.13
2018-06-20T15:10:27.460Z,30.18
2018-06-20T15:15:30.567Z,30.35
2018-06-20T15:20:33.793Z,31.08
2018-06-20T15:25:36.936Z,31.04
2018-06-20T15:30:40.065Z,30.85
2018-06-20T15:35:43.238Z,31.83
2018-06-20T15:40:46.395Z,31.17
2018-06-20T15:45:49.574Z,31.70
2018-06-20T15:50:52.758Z,32.25
2018-06-20T15:55:55.903Z,32.36
2018-06-20T16:00:59.171Z,31.94
2018-06-20T16:06:02.904Z,31.36
2018-06-20T16:11:06.657Z,31.10
2018-06-20T16:16:09.813Z,31.54
2018-06-20T16:21:12.944Z,31.11
2018-06-20T16:26:16.026Z,31.14
2018-06-20T16:31:19.248Z,31.54
2018-06-20T16:36:24.693Z,31.70
2018-06-20T16:41:27.761Z,32.02
2018-06-20T16:46:30.932Z,32.15
2018-06-20T16:51:34.161Z,32.61
2018-06-20T16:56:37.328Z,31.16
2018-06-20T17:01:40.445Z,30.84
2018-06-20T17:06:43.608Z,29.65
2018-06-20T17:11:46.700Z,29.43
2018-06-20T17:16:50.016Z,30.17
2018-06-20T17:21:53.282Z,30.78
2018-06-20T17:26:56.417Z,30.83
2018-06-20T17:31:59.634Z,30.65
2018-06-20T17:37:03.138Z,30.79
2018-06-20T17:42:06.394Z,31.03
2018-06-20T17:47:09.572Z,31.19
2018-06-20T17:52:12.728Z,30.66
2018-06-20T17:57:15.890Z,30.11
2018-06-20T18:02:19.021Z,29.32
2018-06-20T18:07:22.316Z,28.81
2018-06-20T18:12:26.494Z,28.77
2018-06-20T18:17:29.649Z,28.83
2018-06-20T18:22:32.840Z,28.69
2018-06-20T18:27:36.196Z,28.28
2018-06-20T18:32:39.272Z,27.97
2018-06-20T18:37:42.370Z,27.64
2018-06-20T18:42:45.543Z,27.70
2018-06-20T18:47:48.717Z,27.64
2018-06-20T18:52:51.920Z,27.22
2018-06-20T18:57:55.211Z,26.66
2018-06-20T19:02:58.810Z,26.38
2018-06-20T19:08:02.288Z,26.09
2018-06-20T19:13:05.741Z,25.73
2018-06-20T19:18:08.941Z,25.36
2018-06-20T19:23:13.090Z,24.81
2018-06-20T19:28:16.767Z,24.23
2018-06-20T19:33:19.966Z,23.83
2018-06-20T19:38:25.242Z,23.43
2018-06-20T19:43:29.487Z,23.15
2018-06-20T19:48:33.892Z,22.76
2018-06-20T19:53:39.794Z,22.41
2018-06-20T19:58:43.238Z,22.16
2018-06-20T20:03:46.979Z,21.92
2018-06-20T20:08:53.289Z,21.64
2018-06-20T20:13:58.656Z,21.38
2018-06-20T20:19:03.344Z,21.15
2018-06-20T20:24:07.928Z,20.98
2018-06-20T20:29:11.649Z,20.72
2018-06-20T20:34:14.876Z,20.49
2018-06-20T20:39:18.150Z,20.35
2018-06-20T20:44:21.456Z,20.18
2018-06-20T20:49:25.919Z,20.18
2018-06-20T20:54:29.223Z,20.06
2018-06-20T20:59:34.723Z,19.81
2018-06-20T21:04:37.962Z,19.64
2018-06-20T21:09:41.096Z,19.45
2018-06-20T21:14:44.208Z,19.34
2018-06-20T21:19:48.025Z,19.22
2018-06-20T21:24:51.142Z,19.12
2018-06-20T21:29:54.416Z,18.97
2018-06-20T21:34:57.849Z,18.89
2018-06-20T21:40:01.027Z,18.70
2018-06-20T21:45:04.172Z,18.64
2018-06-20T21:50:07.405Z,18.60
2018-06-20T21:55:10.552Z,18.46
2018-06-20T22:00:13.664Z,18.31
2018-06-20T22:05:16.726Z,18.25
2018-06-20T22:10:19.859Z,18.11
2018-06-20T22:15:23.043Z,17.94
2018-06-20T22:20:26.211Z,17.82
2018-06-20T22:25:29.336Z,17.76
2018-06-20T22:30:32.450Z,17.66
2018-06-20T22:35:35.537Z,17.56
2018-06-20T22:40:38.662Z,17.44
2018-06-20T22:45:41.742Z,17.33
2018-06-20T22:50:44.838Z,17.22
2018-06-20T22:55:47.972Z,17.12
2018-06-20T23:00:51.073Z,16.99
2018-06-20T23:05:54.237Z,16.90
2018-06-20T23:10:57.390Z,16.94
2018-06-20T23:16:00.592Z,16.94
2018-06-20T23:21:03.723Z,16.99
2018-06-20T23:26:06.829Z,17.06
2018-06-20T23:31:09.978Z,17.05
2018-06-20T23:36:13.058Z,16.99
2018-06-20T23:41:16.200Z,16.90
2018-06-20T23:46:19.390Z,16.74
2018-06-20T23:51:23.670Z,16.54
2018-06-20T23:56:26.895Z,16.40
